Map

Track Data

SID SEASON NUMBER BASIN SUBBASIN NAME ISO_TIME NATURE LAT LON WMO_WIND WMO_PRES WMO_AGENCY TRACK_TYPE DIST2LAND LANDFALL IFLAG USA_AGENCY USA_ATCF_ID USA_LAT USA_LON USA_RECORD USA_STATUS USA_WIND USA_PRES USA_SSHS USA_R34_NE USA_R34_SE USA_R34_SW USA_R34_NW USA_R50_NE USA_R50_SE USA_R50_SW USA_R50_NW USA_R64_NE USA_R64_SE USA_R64_SW USA_R64_NW USA_POCI USA_ROCI USA_RMW USA_EYE TOKYO_LAT TOKYO_LON TOKYO_GRADE TOKYO_WIND TOKYO_PRES TOKYO_R50_DIR TOKYO_R50_LONG TOKYO_R50_SHORT TOKYO_R30_DIR TOKYO_R30_LONG TOKYO_R30_SHORT TOKYO_LAND CMA_LAT CMA_LON CMA_CAT CMA_WIND CMA_PRES HKO_LAT HKO_LON HKO_CAT HKO_WIND HKO_PRES NEWDELHI_LAT NEWDELHI_LON NEWDELHI_GRADE NEWDELHI_WIND NEWDELHI_PRES NEWDELHI_CI NEWDELHI_DP NEWDELHI_POCI REUNION_LAT REUNION_LON REUNION_TYPE REUNION_WIND REUNION_PRES REUNION_TNUM REUNION_CI REUNION_RMW REUNION_R34_NE REUNION_R34_SE REUNION_R34_SW REUNION_R34_NW REUNION_R50_NE REUNION_R50_SE REUNION_R50_SW REUNION_R50_NW REUNION_R64_NE REUNION_R64_SE REUNION_R64_SW REUNION_R64_NW BOM_LAT BOM_LON BOM_TYPE BOM_WIND BOM_PRES BOM_TNUM BOM_CI BOM_RMW BOM_R34_NE BOM_R34_SE BOM_R34_SW BOM_R34_NW BOM_R50_NE BOM_R50_SE BOM_R50_SW BOM_R50_NW BOM_R64_NE BOM_R64_SE BOM_R64_SW BOM_R64_NW BOM_ROCI BOM_POCI BOM_EYE BOM_POS_METHOD BOM_PRES_METHOD NADI_LAT NADI_LON NADI_CAT NADI_WIND NADI_PRES WELLINGTON_LAT WELLINGTON_LON WELLINGTON_WIND WELLINGTON_PRES DS824_LAT DS824_LON DS824_STAGE DS824_WIND DS824_PRES TD9636_LAT TD9636_LON TD9636_STAGE TD9636_WIND TD9636_PRES TD9635_LAT TD9635_LON TD9635_WIND TD9635_PRES TD9635_ROCI NEUMANN_LAT NEUMANN_LON NEUMANN_CLASS NEUMANN_WIND NEUMANN_PRES MLC_LAT MLC_LON MLC_CLASS MLC_WIND MLC_PRES USA_GUST BOM_GUST BOM_GUST_PER REUNION_GUST REUNION_GUST_PER USA_SEAHGT USA_SEARAD_NE USA_SEARAD_SE USA_SEARAD_SW USA_SEARAD_NW STORM_SPEED STORM_DIR
1953193N26279 1953 30 NA NA NOT_NAMED 1953-07-11 18:00:00 TS 26.1000 -81.3000 25 hurdat_atl main 0 0 O_____________ hurdat_atl AL021953 26.1000 -81.3000 TD 25 -1 6 37
1953193N26279 1953 30 NA NA NOT_NAMED 1953-07-11 21:00:00 TS 26.3376 -81.1001 main 0 0 P_____________ AL021953 26.3376 -81.1001 TD 27 -1 6 36
1953193N26279 1953 30 NA NA NOT_NAMED 1953-07-12 00:00:00 TS 26.6000 -80.9000 30 hurdat_atl main 0 0 O_____________ hurdat_atl AL021953 26.6000 -80.9000 TD 30 -1 7 32
1953193N26279 1953 30 NA NA NOT_NAMED 1953-07-12 03:00:00 TS 26.9000 -80.7000 main 0 0 P_____________ AL021953 26.9000 -80.7000 TD 30 -1 7 31
1953193N26279 1953 30 NA NA NOT_NAMED 1953-07-12 06:00:00 TS 27.2000 -80.5000 30 hurdat_atl main 0 0 O_____________ hurdat_atl AL021953 27.2000 -80.5000 TD 30 -1 6 30
1953193N26279 1953 30 NA NA NOT_NAMED 1953-07-12 09:00:00 TS 27.4572 -80.3371 main 9 9 P_____________ AL021953 27.4572 -80.3371 TD 32 -1 6 35
1953193N26279 1953 30 NA NA NOT_NAMED 1953-07-12 12:00:00 TS 27.7000 -80.1000 35 hurdat_atl main 31 31 O_____________ hurdat_atl AL021953 27.7000 -80.1000 TS 35 0 8 49
1953193N26279 1953 30 NA NA NOT_NAMED 1953-07-12 15:00:00 TS 27.9501 -79.6875 main 79 79 P_____________ AL021953 27.9501 -79.6875 TS 35 0 9 58
1953193N26279 1953 30 NA NA NOT_NAMED 1953-07-12 18:00:00 TS 28.2000 -79.2000 35 hurdat_atl main 131 131 O_____________ hurdat_atl AL021953 28.2000 -79.2000 TS 35 0 10 58
1953193N26279 1953 30 NA NA NOT_NAMED 1953-07-12 21:00:00 TS 28.4574 -78.7499 main 175 175 P_____________ AL021953 28.4574 -78.7499 TS 35 0 9 58
1953193N26279 1953 30 NA NA NOT_NAMED 1953-07-13 00:00:00 TS 28.7000 -78.3000 35 hurdat_atl main 215 215 O_____________ hurdat_atl AL021953 28.7000 -78.3000 TS 35 0 9 60
1953193N26279 1953 30 NA NA NOT_NAMED 1953-07-13 03:00:00 TS 28.9072 -77.8646 main 257 257 P_____________ AL021953 28.9072 -77.8646 TS 35 0 9 63
1953193N26279 1953 30 NA NA NOT_NAMED 1953-07-13 06:00:00 TS 29.1000 -77.4000 35 hurdat_atl main 309 309 O_____________ hurdat_atl AL021953 29.1000 -77.4000 TS 35 0 9 67
1953193N26279 1953 30 NA NA NOT_NAMED 1953-07-13 09:00:00 TS 29.2774 -76.8645 main 361 361 P_____________ AL021953 29.2774 -76.8645 TS 35 0 10 67
1953193N26279 1953 30 NA NA NOT_NAMED 1953-07-13 12:00:00 TS 29.5000 -76.3000 35 hurdat_atl main 422 422 O_____________ hurdat_atl AL021953 29.5000 -76.3000 TS 35 0 11 61
1953193N26279 1953 30 NA NA NOT_NAMED 1953-07-13 15:00:00 TS 29.8275 -75.7351 main 487 484 P_____________ AL021953 29.8275 -75.7351 TS 37 0 12 54
1953193N26279 1953 30 NA NA NOT_NAMED 1953-07-13 18:00:00 TS 30.2000 -75.2000 40 hurdat_atl main 489 483 O_____________ hurdat_atl AL021953 30.2000 -75.2000 TS 40 0 11 53
1953193N26279 1953 30 NA NA NOT_NAMED 1953-07-13 21:00:00 TS 30.5200 -74.6898 main 489 470 P_____________ AL021953 30.5200 -74.6898 TS 40 0 10 48
1953193N26279 1953 30 NA NA NOT_NAMED 1953-07-14 00:00:00 TS 30.9000 -74.3000 40 hurdat_atl main 470 430 O_____________ hurdat_atl AL021953 30.9000 -74.3000 TS 40 0 10 29
1953193N26279 1953 30 NA NA NOT_NAMED 1953-07-14 03:00:00 TS 31.4197 -74.0970 main 430 379 P_____________ AL021953 31.4197 -74.0970 TS 40 0 11 13
1953193N26279 1953 30 NA NA NOT_NAMED 1953-07-14 06:00:00 TS 32.0000 -74.0000 40 hurdat_atl main 379 343 O_____________ hurdat_atl AL021953 32.0000 -74.0000 TS 40 0 11 9
1953193N26279 1953 30 NA NA NOT_NAMED 1953-07-14 09:00:00 TS 32.5425 -73.8922 main 343 305 P_____________ AL021953 32.5425 -73.8922 TS 40 0 11 9
1953193N26279 1953 30 NA NA NOT_NAMED 1953-07-14 12:00:00 TS 33.1000 -73.8000 40 hurdat_atl main 305 273 O_____________ hurdat_atl AL021953 33.1000 -73.8000 TS 40 0 12 8
1953193N26279 1953 30 NA NA NOT_NAMED 1953-07-14 15:00:00 TS 33.6850 -73.7072 main 273 239 P_____________ AL021953 33.6850 -73.7072 TS 40 0 12 8
1953193N26279 1953 30 NA NA NOT_NAMED 1953-07-14 18:00:00 TS 34.3000 -73.6000 40 hurdat_atl main 239 206 O_____________ hurdat_atl AL021953 34.3000 -73.6000 TS 40 0 13 8
1953193N26279 1953 30 NA NA NOT_NAMED 1953-07-14 21:00:00 TS 34.9423 -73.4940 main 206 192 P_____________ AL021953 34.9423 -73.4940 TS 40 0 13 11
1953193N26279 1953 30 NA NA NOT_NAMED 1953-07-15 00:00:00 TS 35.6000 -73.3000 40 hurdat_atl main 199 198 O_____________ hurdat_atl AL021953 35.6000 -73.3000 TS 40 0 14 19
1953193N26279 1953 30 NA NA NOT_NAMED 1953-07-15 03:00:00 TS 36.2502 -72.9377 main 239 239 P_____________ AL021953 36.2502 -72.9377 TS 42 0 15 26
1953193N26279 1953 30 NA NA NOT_NAMED 1953-07-15 06:00:00 TS 36.9000 -72.5000 45 hurdat_atl main 276 268 O_____________ hurdat_atl AL021953 36.9000 -72.5000 TS 45 0 14 27
1953193N26279 1953 30 NA NA NOT_NAMED 1953-07-15 09:00:00 TS 37.5345 -72.1282 main 277 266 P_____________ AL021953 37.5345 -72.1282 TS 45 0 14 26
1953193N26279 1953 30 NA NA NOT_NAMED 1953-07-15 12:00:00 ET 38.2000 -71.7000 45 hurdat_atl main 267 242 O_____________ hurdat_atl AL021953 38.2000 -71.7000 EX 45 -4 16 28
1953193N26279 1953 30 NA NA NOT_NAMED 1953-07-15 15:00:00 ET 38.9192 -71.1801 main 242 200 P_____________ AL021953 38.9192 -71.1801 EX 45 -4 18 32
1953193N26279 1953 30 NA NA NOT_NAMED 1953-07-15 18:00:00 ET 39.7000 -70.5000 45 hurdat_atl main 200 135 O_____________ hurdat_atl AL021953 39.7000 -70.5000 EX 45 -4 20 37
1953193N26279 1953 30 NA NA NOT_NAMED 1953-07-15 21:00:00 ET 40.5373 -69.6164 main 137 106 P_____________ AL021953 40.5373 -69.6164 EX 45 -4 22 40
1953193N26279 1953 30 NA NA NOT_NAMED 1953-07-16 00:00:00 ET 41.4000 -68.6000 45 hurdat_atl main 120 O_____________ hurdat_atl AL021953 41.4000 -68.6000 EX 45 -4 23 41

About IBTrACS Database

This database is a web-friendly format of International Best Track Archive for Climate Stewardship (IBTrACS), a global best track data archive curated by NOAA dating back to 1842.

Updated: 2021-10-27